sensor_id;sensor_type;location;lat;lon;timestamp;temperature;humidity
40023;DHT22;25713;-35.352;149.036;2023-01-30T00:01:28;20.60;99.90
40023;DHT22;25713;-35.352;149.036;2023-01-30T00:03:58;20.60;99.90
40023;DHT22;25713;-35.352;149.036;2023-01-30T00:06:27;20.60;99.90
40023;DHT22;25713;-35.352;149.036;2023-01-30T00:08:56;20.60;99.90
40023;DHT22;25713;-35.352;149.036;2023-01-30T00:11:26;20.60;99.90
40023;DHT22;25713;-35.352;149.036;2023-01-30T00:13:55;20.60;99.90
40023;DHT22;25713;-35.352;149.036;2023-01-30T00:16:27;20.60;99.90
40023;DHT22;25713;-35.352;149.036;2023-01-30T00:18:57;20.60;99.90
40023;DHT22;25713;-35.352;149.036;2023-01-30T00:21:26;20.60;99.90
40023;DHT22;25713;-35.352;149.036;2023-01-30T00:23:55;20.60;99.90
40023;DHT22;25713;-35.352;149.036;2023-01-30T00:26:25;20.60;99.90
40023;DHT22;25713;-35.352;149.036;2023-01-30T00:28:54;20.60;99.90
40023;DHT22;25713;-35.352;149.036;2023-01-30T00:31:26;20.60;99.90
40023;DHT22;25713;-35.352;149.036;2023-01-30T00:33:56;20.60;99.90
40023;DHT22;25713;-35.352;149.036;2023-01-30T00:36:25;20.60;99.90
40023;DHT22;25713;-35.352;149.036;2023-01-30T00:38:57;20.50;99.90
40023;DHT22;25713;-35.352;149.036;2023-01-30T00:41:27;20.50;99.90
40023;DHT22;25713;-35.352;149.036;2023-01-30T00:43:56;20.50;99.90
40023;DHT22;25713;-35.352;149.036;2023-01-30T00:46:31;20.60;99.90
40023;DHT22;25713;-35.352;149.036;2023-01-30T00:49:01;20.50;99.90
40023;DHT22;25713;-35.352;149.036;2023-01-30T00:51:31;20.50;99.90
40023;DHT22;25713;-35.352;149.036;2023-01-30T00:54:01;20.50;99.90
40023;DHT22;25713;-35.352;149.036;2023-01-30T00:56:30;20.50;99.90
40023;DHT22;25713;-35.352;149.036;2023-01-30T00:59:00;20.50;99.90
40023;DHT22;25713;-35.352;149.036;2023-01-30T01:01:32;20.50;99.90
40023;DHT22;25713;-35.352;149.036;2023-01-30T01:04:01;20.50;99.90
40023;DHT22;25713;-35.352;149.036;2023-01-30T01:06:31;20.50;99.90
40023;DHT22;25713;-35.352;149.036;2023-01-30T01:09:00;20.50;99.90
40023;DHT22;25713;-35.352;149.036;2023-01-30T01:11:31;20.60;99.90
40023;DHT22;25713;-35.352;149.036;2023-01-30T01:14:02;20.50;99.90
40023;DHT22;25713;-35.352;149.036;2023-01-30T01:16:35;20.50;99.90
40023;DHT22;25713;-35.352;149.036;2023-01-30T01:19:05;20.50;99.90
40023;DHT22;25713;-35.352;149.036;2023-01-30T01:21:35;20.50;99.90
40023;DHT22;25713;-35.352;149.036;2023-01-30T01:24:09;20.60;99.90
40023;DHT22;25713;-35.352;149.036;2023-01-30T01:26:40;20.50;99.90
40023;DHT22;25713;-35.352;149.036;2023-01-30T01:29:13;20.60;99.90
40023;DHT22;25713;-35.352;149.036;2023-01-30T01:31:45;20.60;99.90
40023;DHT22;25713;-35.352;149.036;2023-01-30T01:34:13;20.60;99.90
40023;DHT22;25713;-35.352;149.036;2023-01-30T01:36:48;20.60;99.90
40023;DHT22;25713;-35.352;149.036;2023-01-30T01:39:18;20.60;99.90
40023;DHT22;25713;-35.352;149.036;2023-01-30T01:41:47;20.50;99.90
40023;DHT22;25713;-35.352;149.036;2023-01-30T01:44:17;20.50;99.90
40023;DHT22;25713;-35.352;149.036;2023-01-30T01:46:50;20.50;99.90
40023;DHT22;25713;-35.352;149.036;2023-01-30T01:49:23;20.50;99.90
40023;DHT22;25713;-35.352;149.036;2023-01-30T01:51:55;20.60;99.90
40023;DHT22;25713;-35.352;149.036;2023-01-30T01:54:25;20.50;99.90
40023;DHT22;25713;-35.352;149.036;2023-01-30T01:56:57;20.60;99.90
40023;DHT22;25713;-35.352;149.036;2023-01-30T01:59:31;20.60;99.90
40023;DHT22;25713;-35.352;149.036;2023-01-30T02:02:08;20.60;99.90
40023;DHT22;25713;-35.352;149.036;2023-01-30T02:04:40;20.60;99.90
40023;DHT22;25713;-35.352;149.036;2023-01-30T02:07:12;20.60;99.90
40023;DHT22;25713;-35.352;149.036;2023-01-30T02:09:42;20.60;99.90
40023;DHT22;25713;-35.352;149.036;2023-01-30T02:12:13;20.50;99.90
40023;DHT22;25713;-35.352;149.036;2023-01-30T02:14:43;20.60;99.90
40023;DHT22;25713;-35.352;149.036;2023-01-30T02:17:17;20.50;99.90
40023;DHT22;25713;-35.352;149.036;2023-01-30T02:19:49;20.50;99.90
40023;DHT22;25713;-35.352;149.036;2023-01-30T02:22:35;20.50;99.90
40023;DHT22;25713;-35.352;149.036;2023-01-30T02:25:38;20.50;99.90
40023;DHT22;25713;-35.352;149.036;2023-01-30T02:31:34;20.50;99.90
40023;DHT22;25713;-35.352;149.036;2023-01-30T02:34:20;20.50;99.90
40023;DHT22;25713;-35.352;149.036;2023-01-30T02:37:01;20.50;99.90
40023;DHT22;25713;-35.352;149.036;2023-01-30T02:39:38;20.50;99.90
40023;DHT22;25713;-35.352;149.036;2023-01-30T02:42:18;20.50;99.90
40023;DHT22;25713;-35.352;149.036;2023-01-30T02:44:54;20.50;99.90
40023;DHT22;25713;-35.352;149.036;2023-01-30T02:47:30;20.50;99.90
40023;DHT22;25713;-35.352;149.036;2023-01-30T02:50:07;20.50;99.90
40023;DHT22;25713;-35.352;149.036;2023-01-30T02:52:39;20.50;99.90
40023;DHT22;25713;-35.352;149.036;2023-01-30T02:55:16;20.50;99.90
40023;DHT22;25713;-35.352;149.036;2023-01-30T02:57:47;20.50;99.90
40023;DHT22;25713;-35.352;149.036;2023-01-30T03:00:20;20.50;99.90
40023;DHT22;25713;-35.352;149.036;2023-01-30T03:03:11;20.50;99.90
40023;DHT22;25713;-35.352;149.036;2023-01-30T03:05:56;20.50;99.90
40023;DHT22;25713;-35.352;149.036;2023-01-30T03:08:33;20.50;99.90
40023;DHT22;25713;-35.352;149.036;2023-01-30T03:11:09;20.50;99.90
40023;DHT22;25713;-35.352;149.036;2023-01-30T03:13:46;20.50;99.90
40023;DHT22;25713;-35.352;149.036;2023-01-30T03:16:21;20.50;99.90
40023;DHT22;25713;-35.352;149.036;2023-01-30T03:19:00;20.50;99.90
40023;DHT22;25713;-35.352;149.036;2023-01-30T03:21:30;20.40;99.90
40023;DHT22;25713;-35.352;149.036;2023-01-30T03:23:59;20.40;99.90
40023;DHT22;25713;-35.352;149.036;2023-01-30T03:26:31;20.40;99.90
40023;DHT22;25713;-35.352;149.036;2023-01-30T03:29:04;20.40;99.90
40023;DHT22;25713;-35.352;149.036;2023-01-30T03:31:34;20.40;99.90
40023;DHT22;25713;-35.352;149.036;2023-01-30T03:34:07;20.40;99.90
40023;DHT22;25713;-35.352;149.036;2023-01-30T03:36:36;20.40;99.90
40023;DHT22;25713;-35.352;149.036;2023-01-30T03:39:06;20.50;99.90
40023;DHT22;25713;-35.352;149.036;2023-01-30T03:41:36;20.50;99.90
40023;DHT22;25713;-35.352;149.036;2023-01-30T03:44:06;20.50;99.90
40023;DHT22;25713;-35.352;149.036;2023-01-30T03:46:35;20.50;99.90
40023;DHT22;25713;-35.352;149.036;2023-01-30T03:49:08;20.50;99.90
40023;DHT22;25713;-35.352;149.036;2023-01-30T03:51:37;20.50;99.90
40023;DHT22;25713;-35.352;149.036;2023-01-30T03:54:07;20.50;99.90
40023;DHT22;25713;-35.352;149.036;2023-01-30T03:56:37;20.50;99.90
40023;DHT22;25713;-35.352;149.036;2023-01-30T03:59:06;20.50;99.90
40023;DHT22;25713;-35.352;149.036;2023-01-30T04:01:41;20.50;99.90
40023;DHT22;25713;-35.352;149.036;2023-01-30T04:04:13;20.50;99.90
40023;DHT22;25713;-35.352;149.036;2023-01-30T04:06:43;20.50;99.90
40023;DHT22;25713;-35.352;149.036;2023-01-30T04:09:12;20.40;99.90
40023;DHT22;25713;-35.352;149.036;2023-01-30T04:11:46;20.40;99.90
40023;DHT22;25713;-35.352;149.036;2023-01-30T04:14:16;20.40;99.90
40023;DHT22;25713;-35.352;149.036;2023-01-30T04:17:05;20.40;99.90
40023;DHT22;25713;-35.352;149.036;2023-01-30T04:19:53;20.40;99.90
40023;DHT22;25713;-35.352;149.036;2023-01-30T04:22:22;20.40;99.90
40023;DHT22;25713;-35.352;149.036;2023-01-30T04:24:51;20.40;99.90
40023;DHT22;25713;-35.352;149.036;2023-01-30T04:27:20;20.40;99.90
40023;DHT22;25713;-35.352;149.036;2023-01-30T04:30:12;20.40;99.90
40023;DHT22;25713;-35.352;149.036;2023-01-30T04:32:42;20.40;99.90
40023;DHT22;25713;-35.352;149.036;2023-01-30T04:35:15;20.50;99.90
40023;DHT22;25713;-35.352;149.036;2023-01-30T04:37:44;20.50;99.90
40023;DHT22;25713;-35.352;149.036;2023-01-30T04:40:18;20.50;99.90
40023;DHT22;25713;-35.352;149.036;2023-01-30T04:42:48;20.60;99.90
40023;DHT22;25713;-35.352;149.036;2023-01-30T04:45:37;20.70;99.90
40023;DHT22;25713;-35.352;149.036;2023-01-30T04:48:12;20.70;99.90
40023;DHT22;25713;-35.352;149.036;2023-01-30T04:50:46;20.70;99.90
40023;DHT22;25713;-35.352;149.036;2023-01-30T04:53:15;20.70;99.90
40023;DHT22;25713;-35.352;149.036;2023-01-30T04:55:45;20.70;99.90
40023;DHT22;25713;-35.352;149.036;2023-01-30T04:58:15;20.80;99.90
40023;DHT22;25713;-35.352;149.036;2023-01-30T05:00:45;20.80;99.90
40023;DHT22;25713;-35.352;149.036;2023-01-30T05:03:15;20.80;99.90
40023;DHT22;25713;-35.352;149.036;2023-01-30T05:05:49;20.80;99.90
40023;DHT22;25713;-35.352;149.036;2023-01-30T05:08:18;20.80;99.90
40023;DHT22;25713;-35.352;149.036;2023-01-30T05:10:47;20.80;99.90
40023;DHT22;25713;-35.352;149.036;2023-01-30T05:13:17;20.90;99.90
40023;DHT22;25713;-35.352;149.036;2023-01-30T05:15:46;20.90;99.90
40023;DHT22;25713;-35.352;149.036;2023-01-30T05:18:16;20.90;99.90
40023;DHT22;25713;-35.352;149.036;2023-01-30T05:20:47;20.90;99.90
40023;DHT22;25713;-35.352;149.036;2023-01-30T05:23:17;20.90;99.90
40023;DHT22;25713;-35.352;149.036;2023-01-30T05:25:46;20.90;99.90
40023;DHT22;25713;-35.352;149.036;2023-01-30T05:28:15;21.00;99.90
40023;DHT22;25713;-35.352;149.036;2023-01-30T05:30:45;20.90;99.90
40023;DHT22;25713;-35.352;149.036;2023-01-30T05:33:14;21.00;99.90
40023;DHT22;25713;-35.352;149.036;2023-01-30T05:35:50;20.90;99.90
40023;DHT22;25713;-35.352;149.036;2023-01-30T05:38:20;20.90;99.90
40023;DHT22;25713;-35.352;149.036;2023-01-30T05:40:58;20.90;99.90
40023;DHT22;25713;-35.352;149.036;2023-01-30T05:43:28;20.90;99.90
40023;DHT22;25713;-35.352;149.036;2023-01-30T05:45:59;20.90;99.90
40023;DHT22;25713;-35.352;149.036;2023-01-30T05:48:29;20.90;99.90
40023;DHT22;25713;-35.352;149.036;2023-01-30T05:51:02;20.80;99.90
40023;DHT22;25713;-35.352;149.036;2023-01-30T05:53:32;20.80;99.90
40023;DHT22;25713;-35.352;149.036;2023-01-30T05:56:03;20.80;99.90
40023;DHT22;25713;-35.352;149.036;2023-01-30T05:58:33;20.70;99.90
40023;DHT22;25713;-35.352;149.036;2023-01-30T06:01:03;20.80;99.90
40023;DHT22;25713;-35.352;149.036;2023-01-30T06:03:33;20.80;99.90
40023;DHT22;25713;-35.352;149.036;2023-01-30T06:06:05;20.80;99.90
40023;DHT22;25713;-35.352;149.036;2023-01-30T06:08:35;20.80;99.90
40023;DHT22;25713;-35.352;149.036;2023-01-30T06:11:06;20.70;99.90
40023;DHT22;25713;-35.352;149.036;2023-01-30T06:13:35;20.80;99.90
40023;DHT22;25713;-35.352;149.036;2023-01-30T06:16:06;20.80;99.90
40023;DHT22;25713;-35.352;149.036;2023-01-30T06:18:36;20.80;99.90
40023;DHT22;25713;-35.352;149.036;2023-01-30T06:21:08;20.80;99.90
40023;DHT22;25713;-35.352;149.036;2023-01-30T06:23:38;20.80;99.90
40023;DHT22;25713;-35.352;149.036;2023-01-30T06:26:07;20.80;99.90
40023;DHT22;25713;-35.352;149.036;2023-01-30T06:28:37;20.80;99.90
40023;DHT22;25713;-35.352;149.036;2023-01-30T06:31:07;20.80;99.90
40023;DHT22;25713;-35.352;149.036;2023-01-30T06:33:37;20.80;99.90
40023;DHT22;25713;-35.352;149.036;2023-01-30T06:36:09;20.80;99.90
40023;DHT22;25713;-35.352;149.036;2023-01-30T06:38:38;20.80;99.90
40023;DHT22;25713;-35.352;149.036;2023-01-30T06:41:08;20.80;99.90
40023;DHT22;25713;-35.352;149.036;2023-01-30T06:43:38;20.80;99.90
40023;DHT22;25713;-35.352;149.036;2023-01-30T06:46:09;20.80;99.90
40023;DHT22;25713;-35.352;149.036;2023-01-30T06:48:38;20.80;99.90
40023;DHT22;25713;-35.352;149.036;2023-01-30T06:51:11;20.80;99.90
40023;DHT22;25713;-35.352;149.036;2023-01-30T06:53:41;20.80;99.90
40023;DHT22;25713;-35.352;149.036;2023-01-30T06:56:10;20.80;99.90
40023;DHT22;25713;-35.352;149.036;2023-01-30T06:58:39;20.80;99.90
40023;DHT22;25713;-35.352;149.036;2023-01-30T07:01:09;20.80;99.90
40023;DHT22;25713;-35.352;149.036;2023-01-30T07:03:38;20.80;99.90
40023;DHT22;25713;-35.352;149.036;2023-01-30T07:06:11;20.90;99.90
40023;DHT22;25713;-35.352;149.036;2023-01-30T07:08:40;20.80;99.90
40023;DHT22;25713;-35.352;149.036;2023-01-30T07:11:10;20.80;99.90
40023;DHT22;25713;-35.352;149.036;2023-01-30T07:13:39;20.80;99.90
40023;DHT22;25713;-35.352;149.036;2023-01-30T07:16:09;20.80;99.90
40023;DHT22;25713;-35.352;149.036;2023-01-30T07:18:39;20.80;99.90
40023;DHT22;25713;-35.352;149.036;2023-01-30T07:21:10;20.80;99.90
40023;DHT22;25713;-35.352;149.036;2023-01-30T07:23:40;20.80;99.90
40023;DHT22;25713;-35.352;149.036;2023-01-30T07:26:09;20.80;99.90
40023;DHT22;25713;-35.352;149.036;2023-01-30T07:28:38;20.80;99.90
40023;DHT22;25713;-35.352;149.036;2023-01-30T07:31:08;20.80;99.90
40023;DHT22;25713;-35.352;149.036;2023-01-30T07:33:37;20.70;99.90
40023;DHT22;25713;-35.352;149.036;2023-01-30T07:36:07;20.70;99.90
40023;DHT22;25713;-35.352;149.036;2023-01-30T07:38:40;20.70;99.90
40023;DHT22;25713;-35.352;149.036;2023-01-30T07:41:09;20.70;99.90
40023;DHT22;25713;-35.352;149.036;2023-01-30T07:43:39;20.80;99.90
40023;DHT22;25713;-35.352;149.036;2023-01-30T07:46:09;20.70;99.90
40023;DHT22;25713;-35.352;149.036;2023-01-30T07:48:38;20.80;99.90
40023;DHT22;25713;-35.352;149.036;2023-01-30T07:51:07;20.80;99.90
40023;DHT22;25713;-35.352;149.036;2023-01-30T07:53:39;20.80;99.90
40023;DHT22;25713;-35.352;149.036;2023-01-30T07:56:09;20.70;99.90
40023;DHT22;25713;-35.352;149.036;2023-01-30T07:58:38;20.70;99.90
40023;DHT22;25713;-35.352;149.036;2023-01-30T08:01:08;20.70;99.90
40023;DHT22;25713;-35.352;149.036;2023-01-30T08:03:37;20.70;99.90
40023;DHT22;25713;-35.352;149.036;2023-01-30T08:06:07;20.70;99.90
40023;DHT22;25713;-35.352;149.036;2023-01-30T08:08:40;20.70;99.90
40023;DHT22;25713;-35.352;149.036;2023-01-30T08:11:10;20.70;99.90
40023;DHT22;25713;-35.352;149.036;2023-01-30T08:13:39;20.70;99.90
40023;DHT22;25713;-35.352;149.036;2023-01-30T08:16:09;20.70;99.90
40023;DHT22;25713;-35.352;149.036;2023-01-30T08:18:38;20.70;99.90
40023;DHT22;25713;-35.352;149.036;2023-01-30T08:21:08;20.70;99.90
40023;DHT22;25713;-35.352;149.036;2023-01-30T08:23:40;20.70;99.90
40023;DHT22;25713;-35.352;149.036;2023-01-30T08:26:09;20.70;99.90
40023;DHT22;25713;-35.352;149.036;2023-01-30T08:28:39;20.70;99.90
40023;DHT22;25713;-35.352;149.036;2023-01-30T08:31:12;20.70;99.90
40023;DHT22;25713;-35.352;149.036;2023-01-30T08:33:42;20.70;99.90
40023;DHT22;25713;-35.352;149.036;2023-01-30T08:36:11;20.70;99.90
40023;DHT22;25713;-35.352;149.036;2023-01-30T08:38:43;20.70;99.90
40023;DHT22;25713;-35.352;149.036;2023-01-30T08:41:12;20.70;99.90
40023;DHT22;25713;-35.352;149.036;2023-01-30T08:43:42;20.70;99.90
40023;DHT22;25713;-35.352;149.036;2023-01-30T08:46:11;20.70;99.90
40023;DHT22;25713;-35.352;149.036;2023-01-30T08:48:40;20.70;99.90
40023;DHT22;25713;-35.352;149.036;2023-01-30T08:51:10;20.70;99.90
40023;DHT22;25713;-35.352;149.036;2023-01-30T08:53:42;20.70;99.90
40023;DHT22;25713;-35.352;149.036;2023-01-30T08:56:14;20.70;99.90
40023;DHT22;25713;-35.352;149.036;2023-01-30T08:58:43;20.70;99.90
40023;DHT22;25713;-35.352;149.036;2023-01-30T09:01:13;20.60;99.90
40023;DHT22;25713;-35.352;149.036;2023-01-30T09:03:43;20.70;99.90
40023;DHT22;25713;-35.352;149.036;2023-01-30T09:06:12;20.60;99.90
40023;DHT22;25713;-35.352;149.036;2023-01-30T09:08:45;20.60;99.90
40023;DHT22;25713;-35.352;149.036;2023-01-30T09:11:15;20.60;99.90
40023;DHT22;25713;-35.352;149.036;2023-01-30T09:13:44;20.60;99.90
40023;DHT22;25713;-35.352;149.036;2023-01-30T09:16:14;20.60;99.90
40023;DHT22;25713;-35.352;149.036;2023-01-30T09:18:44;20.70;99.90
40023;DHT22;25713;-35.352;149.036;2023-01-30T09:21:14;20.70;99.90
40023;DHT22;25713;-35.352;149.036;2023-01-30T09:23:45;20.70;99.90
40023;DHT22;25713;-35.352;149.036;2023-01-30T09:26:15;20.60;99.90
40023;DHT22;25713;-35.352;149.036;2023-01-30T09:28:45;20.70;99.90
40023;DHT22;25713;-35.352;149.036;2023-01-30T09:31:14;20.60;99.90
40023;DHT22;25713;-35.352;149.036;2023-01-30T09:33:45;20.60;99.90
40023;DHT22;25713;-35.352;149.036;2023-01-30T09:36:16;20.60;99.90
40023;DHT22;25713;-35.352;149.036;2023-01-30T09:38:48;20.60;99.90
40023;DHT22;25713;-35.352;149.036;2023-01-30T09:41:40;20.50;99.90
40023;DHT22;25713;-35.352;149.036;2023-01-30T09:47:17;20.50;99.90
40023;DHT22;25713;-35.352;149.036;2023-01-30T09:49:54;20.50;99.90
40023;DHT22;25713;-35.352;149.036;2023-01-30T09:52:32;20.50;99.90
40023;DHT22;25713;-35.352;149.036;2023-01-30T09:55:16;20.60;99.90
40023;DHT22;25713;-35.352;149.036;2023-01-30T09:57:47;20.60;99.90
40023;DHT22;25713;-35.352;149.036;2023-01-30T10:00:23;20.60;99.90
40023;DHT22;25713;-35.352;149.036;2023-01-30T10:03:02;20.60;99.90
40023;DHT22;25713;-35.352;149.036;2023-01-30T10:05:37;20.60;99.90
40023;DHT22;25713;-35.352;149.036;2023-01-30T10:08:23;20.60;99.90
40023;DHT22;25713;-35.352;149.036;2023-01-30T10:11:03;20.60;99.90
40023;DHT22;25713;-35.352;149.036;2023-01-30T10:13:57;20.60;99.90
40023;DHT22;25713;-35.352;149.036;2023-01-30T10:16:35;20.50;99.90
40023;DHT22;25713;-35.352;149.036;2023-01-30T10:22:31;20.60;99.90
40023;DHT22;25713;-35.352;149.036;2023-01-30T10:25:12;20.60;99.90
40023;DHT22;25713;-35.352;149.036;2023-01-30T10:27:50;20.60;99.90
40023;DHT22;25713;-35.352;149.036;2023-01-30T10:30:22;20.60;99.90
40023;DHT22;25713;-35.352;149.036;2023-01-30T10:32:55;20.60;99.90
40023;DHT22;25713;-35.352;149.036;2023-01-30T10:35:29;20.60;99.90
40023;DHT22;25713;-35.352;149.036;2023-01-30T10:38:05;20.60;99.90
40023;DHT22;25713;-35.352;149.036;2023-01-30T10:40:41;20.60;99.90
40023;DHT22;25713;-35.352;149.036;2023-01-30T10:43:17;20.60;99.90
40023;DHT22;25713;-35.352;149.036;2023-01-30T10:45:53;20.50;99.90
40023;DHT22;25713;-35.352;149.036;2023-01-30T10:48:46;20.60;99.90
40023;DHT22;25713;-35.352;149.036;2023-01-30T10:51:23;20.50;99.90
40023;DHT22;25713;-35.352;149.036;2023-01-30T10:53:58;20.50;99.90
40023;DHT22;25713;-35.352;149.036;2023-01-30T10:56:36;20.50;99.90
40023;DHT22;25713;-35.352;149.036;2023-01-30T10:59:20;20.50;99.90
40023;DHT22;25713;-35.352;149.036;2023-01-30T11:01:58;20.50;99.90
40023;DHT22;25713;-35.352;149.036;2023-01-30T11:04:32;20.40;99.90
40023;DHT22;25713;-35.352;149.036;2023-01-30T11:07:04;20.40;99.90
40023;DHT22;25713;-35.352;149.036;2023-01-30T11:09:43;20.40;99.90
40023;DHT22;25713;-35.352;149.036;2023-01-30T11:12:13;20.40;99.90
40023;DHT22;25713;-35.352;149.036;2023-01-30T11:15:10;20.40;99.90
40023;DHT22;25713;-35.352;149.036;2023-01-30T11:17:41;20.40;99.90
40023;DHT22;25713;-35.352;149.036;2023-01-30T11:20:14;20.40;99.90
40023;DHT22;25713;-35.352;149.036;2023-01-30T11:22:49;20.50;99.90
40023;DHT22;25713;-35.352;149.036;2023-01-30T11:25:20;20.50;99.90
40023;DHT22;25713;-35.352;149.036;2023-01-30T11:27:54;20.40;99.90
40023;DHT22;25713;-35.352;149.036;2023-01-30T11:30:33;20.50;99.90
40023;DHT22;25713;-35.352;149.036;2023-01-30T11:33:09;20.50;99.90
40023;DHT22;25713;-35.352;149.036;2023-01-30T11:35:42;20.50;99.90
40023;DHT22;25713;-35.352;149.036;2023-01-30T11:38:19;20.40;99.90
40023;DHT22;25713;-35.352;149.036;2023-01-30T11:40:49;20.40;99.90
40023;DHT22;25713;-35.352;149.036;2023-01-30T11:43:29;20.40;99.90
40023;DHT22;25713;-35.352;149.036;2023-01-30T11:46:02;20.40;99.90
40023;DHT22;25713;-35.352;149.036;2023-01-30T11:48:32;20.40;99.90
40023;DHT22;25713;-35.352;149.036;2023-01-30T11:51:05;20.40;99.90
40023;DHT22;25713;-35.352;149.036;2023-01-30T11:53:37;20.40;99.90
40023;DHT22;25713;-35.352;149.036;2023-01-30T11:56:13;20.40;99.90
40023;DHT22;25713;-35.352;149.036;2023-01-30T11:58:44;20.40;99.90
40023;DHT22;25713;-35.352;149.036;2023-01-30T12:01:19;20.40;99.90
40023;DHT22;25713;-35.352;149.036;2023-01-30T12:03:50;20.40;99.90
40023;DHT22;25713;-35.352;149.036;2023-01-30T12:06:29;20.40;99.90
40023;DHT22;25713;-35.352;149.036;2023-01-30T12:08:59;20.40;99.90
40023;DHT22;25713;-35.352;149.036;2023-01-30T12:11:31;20.40;99.90
40023;DHT22;25713;-35.352;149.036;2023-01-30T12:14:20;20.40;99.90
40023;DHT22;25713;-35.352;149.036;2023-01-30T12:17:13;20.40;99.90
40023;DHT22;25713;-35.352;149.036;2023-01-30T12:19:51;20.40;99.90
40023;DHT22;25713;-35.352;149.036;2023-01-30T12:22:29;20.40;99.90
40023;DHT22;25713;-35.352;149.036;2023-01-30T12:25:03;20.40;99.90
40023;DHT22;25713;-35.352;149.036;2023-01-30T12:27:46;20.40;99.90
40023;DHT22;25713;-35.352;149.036;2023-01-30T12:30:23;20.40;99.90
40023;DHT22;25713;-35.352;149.036;2023-01-30T12:33:02;20.40;99.90
40023;DHT22;25713;-35.352;149.036;2023-01-30T12:35:38;20.40;99.90
40023;DHT22;25713;-35.352;149.036;2023-01-30T12:38:17;20.40;99.90
40023;DHT22;25713;-35.352;149.036;2023-01-30T12:40:54;20.40;99.90
40023;DHT22;25713;-35.352;149.036;2023-01-30T12:43:45;20.40;99.90
40023;DHT22;25713;-35.352;149.036;2023-01-30T12:46:39;20.40;99.90
40023;DHT22;25713;-35.352;149.036;2023-01-30T12:49:30;20.40;99.90
40023;DHT22;25713;-35.352;149.036;2023-01-30T12:52:24;20.40;99.90
40023;DHT22;25713;-35.352;149.036;2023-01-30T12:55:00;20.30;99.90
40023;DHT22;25713;-35.352;149.036;2023-01-30T12:57:37;20.30;99.90
40023;DHT22;25713;-35.352;149.036;2023-01-30T13:00:25;20.30;99.90
40023;DHT22;25713;-35.352;149.036;2023-01-30T13:03:28;20.30;99.90
40023;DHT22;25713;-35.352;149.036;2023-01-30T13:06:12;20.30;99.90
40023;DHT22;25713;-35.352;149.036;2023-01-30T13:09:00;20.30;99.90
40023;DHT22;25713;-35.352;149.036;2023-01-30T13:11:48;20.30;99.90
40023;DHT22;25713;-35.352;149.036;2023-01-30T13:14:25;20.30;99.90
40023;DHT22;25713;-35.352;149.036;2023-01-30T13:17:03;20.30;99.90
40023;DHT22;25713;-35.352;149.036;2023-01-30T13:19:39;20.20;99.90
40023;DHT22;25713;-35.352;149.036;2023-01-30T13:22:18;20.30;99.90
40023;DHT22;25713;-35.352;149.036;2023-01-30T13:24:56;20.30;99.90
40023;DHT22;25713;-35.352;149.036;2023-01-30T13:27:28;20.30;99.90
40023;DHT22;25713;-35.352;149.036;2023-01-30T13:29:59;20.20;99.90
40023;DHT22;25713;-35.352;149.036;2023-01-30T13:32:37;20.30;99.90
40023;DHT22;25713;-35.352;149.036;2023-01-30T13:35:16;20.30;99.90
40023;DHT22;25713;-35.352;149.036;2023-01-30T13:37:50;20.30;99.90
40023;DHT22;25713;-35.352;149.036;2023-01-30T13:40:22;20.20;99.90
40023;DHT22;25713;-35.352;149.036;2023-01-30T13:42:54;20.30;99.90
40023;DHT22;25713;-35.352;149.036;2023-01-30T13:45:27;20.20;99.90
40023;DHT22;25713;-35.352;149.036;2023-01-30T13:48:09;20.20;99.90
40023;DHT22;25713;-35.352;149.036;2023-01-30T13:50:59;20.20;99.90
40023;DHT22;25713;-35.352;149.036;2023-01-30T13:53:42;20.20;99.90
40023;DHT22;25713;-35.352;149.036;2023-01-30T13:56:19;20.20;99.90
40023;DHT22;25713;-35.352;149.036;2023-01-30T13:58:54;20.20;99.90
40023;DHT22;25713;-35.352;149.036;2023-01-30T14:04:51;20.20;99.90
40023;DHT22;25713;-35.352;149.036;2023-01-30T14:07:25;20.20;99.90
40023;DHT22;25713;-35.352;149.036;2023-01-30T14:10:12;20.20;99.90
40023;DHT22;25713;-35.352;149.036;2023-01-30T14:12:43;20.20;99.70
40023;DHT22;25713;-35.352;149.036;2023-01-30T14:15:26;20.20;99.80
40023;DHT22;25713;-35.352;149.036;2023-01-30T14:17:58;20.20;99.80
40023;DHT22;25713;-35.352;149.036;2023-01-30T14:20:29;20.20;99.90
40023;DHT22;25713;-35.352;149.036;2023-01-30T14:22:59;20.20;99.80
40023;DHT22;25713;-35.352;149.036;2023-01-30T14:25:46;20.20;99.70
40023;DHT22;25713;-35.352;149.036;2023-01-30T14:28:49;20.10;99.50
40023;DHT22;25713;-35.352;149.036;2023-01-30T14:31:51;20.10;99.60
40023;DHT22;25713;-35.352;149.036;2023-01-30T14:34:40;20.20;99.70
40023;DHT22;25713;-35.352;149.036;2023-01-30T14:37:46;20.20;99.80
40023;DHT22;25713;-35.352;149.036;2023-01-30T14:40:32;20.20;99.80
40023;DHT22;25713;-35.352;149.036;2023-01-30T14:46:42;20.10;99.70
40023;DHT22;25713;-35.352;149.036;2023-01-30T14:49:31;20.20;99.70
40023;DHT22;25713;-35.352;149.036;2023-01-30T15:52:45;19.80;99.90
40023;DHT22;25713;-35.352;149.036;2023-01-30T15:55:18;19.80;99.90
40023;DHT22;25713;-35.352;149.036;2023-01-30T15:57:50;19.80;99.90
40023;DHT22;25713;-35.352;149.036;2023-01-30T16:00:26;19.80;99.90
40023;DHT22;25713;-35.352;149.036;2023-01-30T16:02:56;19.80;99.90
40023;DHT22;25713;-35.352;149.036;2023-01-30T16:05:27;19.80;99.90
40023;DHT22;25713;-35.352;149.036;2023-01-30T16:08:15;19.80;99.90
40023;DHT22;25713;-35.352;149.036;2023-01-30T16:10:46;19.80;99.90
40023;DHT22;25713;-35.352;149.036;2023-01-30T16:13:16;19.80;99.80
40023;DHT22;25713;-35.352;149.036;2023-01-30T16:15:50;19.80;99.70
40023;DHT22;25713;-35.352;149.036;2023-01-30T16:18:34;19.80;99.70
40023;DHT22;25713;-35.352;149.036;2023-01-30T16:21:05;19.90;99.60
40023;DHT22;25713;-35.352;149.036;2023-01-30T16:23:41;19.90;99.70
40023;DHT22;25713;-35.352;149.036;2023-01-30T16:26:14;19.90;99.60
40023;DHT22;25713;-35.352;149.036;2023-01-30T16:28:44;19.90;99.60
40023;DHT22;25713;-35.352;149.036;2023-01-30T16:31:14;19.90;99.60
40023;DHT22;25713;-35.352;149.036;2023-01-30T16:33:50;19.90;99.50
40023;DHT22;25713;-35.352;149.036;2023-01-30T16:36:37;19.90;99.40
40023;DHT22;25713;-35.352;149.036;2023-01-30T16:39:29;19.90;99.30
40023;DHT22;25713;-35.352;149.036;2023-01-30T16:42:00;19.90;99.40
40023;DHT22;25713;-35.352;149.036;2023-01-30T16:44:30;19.90;99.40
40023;DHT22;25713;-35.352;149.036;2023-01-30T16:47:02;19.90;99.30